createdAt,value
2023-01-17T16:09:44.919Z,98955.16
2023-01-17T16:12:13.209Z,98947.81
2023-01-17T16:14:59.488Z,98938.73
2023-01-17T16:17:34.962Z,98930.77
2023-01-17T16:22:56.548Z,98935.09
2023-01-17T16:25:25.557Z,98938.86
2023-01-17T16:27:54.175Z,98945.94
2023-01-17T16:30:25.554Z,98955.13
2023-01-17T16:32:54.081Z,98962.84
2023-01-17T16:35:27.145Z,98966.36
2023-01-17T16:37:57.074Z,98963.27
2023-01-17T16:40:30.378Z,98964.68
2023-01-17T16:43:03.505Z,98963.20
2023-01-17T16:45:31.821Z,98973.66
2023-01-17T16:48:04.655Z,98977.96
2023-01-17T16:50:44.193Z,98978.83
2023-01-17T16:53:12.419Z,98985.67
2023-01-17T16:55:45.058Z,98984.77
2023-01-17T16:58:16.848Z,98985.25
2023-01-17T17:00:45.141Z,98982.66
2023-01-17T17:03:18.353Z,98981.08
2023-01-17T17:05:58.019Z,98983.12
2023-01-17T17:08:29.177Z,98991.19
2023-01-17T17:11:21.733Z,98999.10
2023-01-17T17:13:54.933Z,99010.48
2023-01-17T17:16:33.040Z,99002.95
2023-01-17T17:19:10.709Z,98993.98
2023-01-17T17:21:39.495Z,98994.27
2023-01-17T17:24:09.128Z,98995.82
2023-01-17T17:26:37.352Z,98997.52
2023-01-17T17:29:10.557Z,99001.68
2023-01-17T17:31:46.247Z,98998.65
2023-01-17T17:34:15.495Z,98995.71
2023-01-17T17:36:44.045Z,98995.29
2023-01-17T17:39:15.123Z,98999.73
2023-01-17T17:41:45.524Z,99004.73
2023-01-17T17:44:13.760Z,99002.61
2023-01-17T17:46:44.879Z,99007.39
2023-01-17T17:49:13.089Z,99001.05
2023-01-17T17:51:47.299Z,99003.97
2023-01-17T17:54:19.644Z,99004.00
2023-01-17T17:56:48.511Z,99006.55
2023-01-17T17:59:19.581Z,99012.39
2023-01-17T18:01:48.469Z,99035.02
2023-01-17T18:04:23.772Z,99042.14
2023-01-17T18:06:58.197Z,99033.38
2023-01-17T18:09:27.833Z,99018.49
2023-01-17T18:11:57.647Z,99004.39
2023-01-17T18:14:25.878Z,98988.42
2023-01-17T18:16:54.183Z,98998.51
2023-01-17T18:19:34.308Z,99002.56
2023-01-17T18:22:03.827Z,98991.63
2023-01-17T18:24:34.007Z,98993.62
2023-01-17T18:27:05.587Z,99002.29
2023-01-17T18:29:40.497Z,98998.03
2023-01-17T18:32:08.765Z,99007.05
2023-01-17T18:34:52.191Z,99020.97
2023-01-17T18:37:20.269Z,99007.62
2023-01-17T18:39:51.440Z,99009.30
2023-01-17T18:46:41.770Z,99007.16
2023-01-17T18:49:16.226Z,99012.77
2023-01-17T18:51:50.591Z,99011.05
2023-01-17T18:54:20.391Z,99010.06
2023-01-17T18:56:49.076Z,99012.36
2023-01-17T18:59:21.672Z,99013.16
2023-01-17T19:01:50.225Z,99013.90
2023-01-17T19:04:19.395Z,99018.91
2023-01-17T19:06:48.567Z,99008.13
2023-01-17T19:09:17.637Z,99000.04
2023-01-17T19:11:47.627Z,99004.39
2023-01-17T19:14:15.990Z,99017.10
2023-01-17T19:16:44.550Z,99021.55
2023-01-17T19:19:15.468Z,99022.23
2023-01-17T19:21:44.388Z,99022.61
2023-01-17T19:24:13.426Z,99022.71
2023-01-17T19:26:43.105Z,99019.73
2023-01-17T19:29:12.308Z,99015.48
2023-01-17T19:31:43.109Z,99013.73
2023-01-17T19:34:18.937Z,99013.73
2023-01-17T19:36:47.518Z,99012.94
2023-01-17T19:39:16.172Z,99018.08
2023-01-17T19:41:45.613Z,99019.57
2023-01-17T19:44:14.670Z,99011.69
2023-01-17T19:46:44.424Z,99027.77
2023-01-17T19:49:12.707Z,99033.23
2023-01-17T19:51:40.881Z,99026.77
2023-01-17T19:54:09.182Z,99037.80
2023-01-17T19:56:37.575Z,99039.53
2023-01-17T19:59:07.248Z,99032.81
2023-01-17T20:01:35.673Z,99026.65
2023-01-17T20:04:04.491Z,99022.95
2023-01-17T20:06:37.060Z,99026.29
2023-01-17T20:09:06.096Z,99034.25
2023-01-17T20:11:34.681Z,99037.58
2023-01-17T20:14:05.618Z,99034.67
2023-01-17T20:16:36.111Z,99042.15
2023-01-17T20:19:04.993Z,99035.73
2023-01-17T20:21:34.522Z,99033.85
2023-01-17T20:24:06.144Z,99030.67
2023-01-17T20:26:35.401Z,99029.61
2023-01-17T20:29:10.608Z,99020.52
2023-01-17T20:31:41.002Z,99019.02
2023-01-17T20:34:12.276Z,99009.45
2023-01-17T20:36:44.244Z,98996.02
2023-01-17T20:39:19.677Z,98985.24
2023-01-17T20:41:49.943Z,98978.64
2023-01-17T20:44:19.765Z,98980.76
2023-01-17T20:46:48.340Z,98980.08
2023-01-17T20:49:19.283Z,98978.03
2023-01-17T20:51:47.735Z,98975.89
2023-01-17T20:54:18.621Z,98968.73
2023-01-17T20:56:47.874Z,98973.30
2023-01-17T20:59:19.001Z,98974.89
2023-01-17T21:01:48.129Z,98970.85
2023-01-17T21:04:18.150Z,98964.25
2023-01-17T21:06:46.531Z,98957.66
2023-01-17T21:09:15.553Z,98939.61
2023-01-17T21:11:43.892Z,98927.97
2023-01-17T21:14:12.147Z,98930.59
2023-01-17T21:16:41.236Z,98978.34
2023-01-17T21:19:12.201Z,98963.95
2023-01-17T21:21:40.737Z,98958.82
2023-01-17T21:24:09.068Z,98965.42
2023-01-17T21:26:39.033Z,98970.52
2023-01-17T21:29:08.808Z,98960.27
2023-01-17T21:31:38.823Z,98960.23
2023-01-17T21:34:09.630Z,98977.36
2023-01-17T21:36:40.215Z,98964.15
2023-01-17T21:39:29.463Z,98954.94
2023-01-17T21:41:57.719Z,98940.80
2023-01-17T21:44:28.029Z,98937.42
2023-01-17T21:46:59.807Z,98933.59
2023-01-17T21:49:37.386Z,98927.20
2023-01-17T21:52:20.868Z,98929.21
2023-01-17T21:55:07.711Z,98925.77
2023-01-17T21:57:54.732Z,98919.30
2023-01-17T22:00:23.217Z,98916.08
2023-01-17T22:02:51.586Z,98916.02
2023-01-17T22:05:20.062Z,98914.60
2023-01-17T22:08:20.097Z,98918.87
2023-01-17T22:10:49.066Z,98908.68
2023-01-17T22:13:18.766Z,98901.80
2023-01-17T22:15:58.743Z,98899.77
2023-01-17T22:18:28.051Z,98896.07
2023-01-17T22:20:57.323Z,98901.00
2023-01-17T22:23:25.893Z,98897.05
2023-01-17T22:25:54.024Z,98889.60
2023-01-17T22:28:22.556Z,98885.02
2023-01-17T22:30:50.924Z,98875.88
2023-01-17T22:33:19.183Z,98871.80
2023-01-17T22:35:47.431Z,98870.98
2023-01-17T22:38:15.663Z,98866.89
2023-01-17T22:40:43.964Z,98858.48
2023-01-17T22:43:12.390Z,98852.77
2023-01-17T22:45:40.754Z,98852.86
2023-01-17T22:48:10.404Z,98853.95
2023-01-17T22:50:38.784Z,98848.83
2023-01-17T22:53:07.171Z,98843.11
2023-01-17T22:55:35.419Z,98834.14
2023-01-17T22:58:03.763Z,98835.70
2023-01-17T23:00:31.996Z,98841.95
2023-01-17T23:03:00.584Z,98842.98
2023-01-17T23:05:29.126Z,98834.32
2023-01-17T23:07:57.432Z,98829.44
2023-01-17T23:10:44.310Z,98823.18
2023-01-17T23:13:12.751Z,98819.45
2023-01-17T23:15:59.859Z,98807.08
2023-01-17T23:18:46.408Z,98802.23
2023-01-17T23:21:14.664Z,98797.33
2023-01-17T23:23:42.817Z,98795.02
2023-01-17T23:26:10.998Z,98797.83
2023-01-17T23:28:39.251Z,98794.25
2023-01-17T23:31:08.899Z,98784.05
2023-01-17T23:33:37.079Z,98773.52
2023-01-17T23:36:09.430Z,98782.47
2023-01-17T23:38:40.737Z,98793.86
2023-01-17T23:41:27.906Z,98798.75
2023-01-17T23:43:58.366Z,98801.73
2023-01-17T23:46:27.528Z,98802.67
2023-01-17T23:48:55.831Z,98807.29
2023-01-17T23:51:24.068Z,98808.23
2023-01-17T23:53:57.598Z,98820.34
2023-01-17T23:56:25.945Z,98814.98
2023-01-17T23:58:54.127Z,98808.05
